sensor_id;sensor_type;location;lat;lon;timestamp;P1;durP1;ratioP1;P2;durP2;ratioP2
54261;SDS011;40174;52.364;6.452;2022-10-03T00:01:07;7.70;;;1.70;;
54261;SDS011;40174;52.364;6.452;2022-10-03T00:03:47;6.20;;;1.35;;
54261;SDS011;40174;52.364;6.452;2022-10-03T00:06:24;9.90;;;1.38;;
54261;SDS011;40174;52.364;6.452;2022-10-03T00:09:03;15.07;;;1.50;;
54261;SDS011;40174;52.364;6.452;2022-10-03T00:11:42;9.25;;;1.42;;
54261;SDS011;40174;52.364;6.452;2022-10-03T00:14:22;9.07;;;1.23;;
54261;SDS011;40174;52.364;6.452;2022-10-03T00:17:00;4.45;;;1.00;;
54261;SDS011;40174;52.364;6.452;2022-10-03T00:19:36;9.40;;;1.33;;
54261;SDS011;40174;52.364;6.452;2022-10-03T00:22:13;10.32;;;1.58;;
54261;SDS011;40174;52.364;6.452;2022-10-03T00:24:55;7.00;;;1.08;;
54261;SDS011;40174;52.364;6.452;2022-10-03T00:27:32;9.80;;;1.80;;
54261;SDS011;40174;52.364;6.452;2022-10-03T00:30:10;7.70;;;1.27;;
54261;SDS011;40174;52.364;6.452;2022-10-03T00:32:45;9.98;;;1.30;;
54261;SDS011;40174;52.364;6.452;2022-10-03T00:35:34;7.40;;;1.40;;
54261;SDS011;40174;52.364;6.452;2022-10-03T00:38:11;5.97;;;1.55;;
54261;SDS011;40174;52.364;6.452;2022-10-03T00:43:47;5.18;;;0.98;;
54261;SDS011;40174;52.364;6.452;2022-10-03T00:55:43;4.90;;;1.13;;
54261;SDS011;40174;52.364;6.452;2022-10-03T01:01:20;6.35;;;1.23;;
54261;SDS011;40174;52.364;6.452;2022-10-03T01:03:55;9.65;;;1.27;;
54261;SDS011;40174;52.364;6.452;2022-10-03T01:06:33;7.50;;;1.40;;
54261;SDS011;40174;52.364;6.452;2022-10-03T01:09:12;6.53;;;1.30;;
54261;SDS011;40174;52.364;6.452;2022-10-03T01:12:02;14.20;;;1.67;;
54261;SDS011;40174;52.364;6.452;2022-10-03T01:14:45;7.85;;;1.38;;
54261;SDS011;40174;52.364;6.452;2022-10-03T01:17:24;3.67;;;1.20;;
54261;SDS011;40174;52.364;6.452;2022-10-03T01:20:07;9.00;;;1.70;;
54261;SDS011;40174;52.364;6.452;2022-10-03T01:22:51;7.28;;;1.30;;
54261;SDS011;40174;52.364;6.452;2022-10-03T01:25:44;5.25;;;1.20;;
54261;SDS011;40174;52.364;6.452;2022-10-03T01:28:39;8.50;;;1.50;;
54261;SDS011;40174;52.364;6.452;2022-10-03T01:31:40;13.10;;;1.67;;
54261;SDS011;40174;52.364;6.452;2022-10-03T01:34:15;6.90;;;1.42;;
54261;SDS011;40174;52.364;6.452;2022-10-03T01:36:51;7.35;;;1.45;;
54261;SDS011;40174;52.364;6.452;2022-10-03T01:39:28;7.55;;;1.25;;
54261;SDS011;40174;52.364;6.452;2022-10-03T01:42:04;8.57;;;1.48;;
54261;SDS011;40174;52.364;6.452;2022-10-03T01:44:38;1.73;;;0.60;;
54261;SDS011;40174;52.364;6.452;2022-10-03T01:47:19;7.38;;;1.00;;
54261;SDS011;40174;52.364;6.452;2022-10-03T01:49:53;6.97;;;0.85;;
54261;SDS011;40174;52.364;6.452;2022-10-03T01:52:26;8.32;;;1.25;;
54261;SDS011;40174;52.364;6.452;2022-10-03T01:55:04;8.30;;;2.35;;
54261;SDS011;40174;52.364;6.452;2022-10-03T01:57:39;8.75;;;1.13;;
54261;SDS011;40174;52.364;6.452;2022-10-03T02:00:12;9.23;;;1.38;;
54261;SDS011;40174;52.364;6.452;2022-10-03T02:02:42;6.55;;;1.48;;
54261;SDS011;40174;52.364;6.452;2022-10-03T02:05:14;5.18;;;1.17;;
54261;SDS011;40174;52.364;6.452;2022-10-03T02:07:49;6.47;;;1.40;;
54261;SDS011;40174;52.364;6.452;2022-10-03T02:10:27;12.02;;;1.73;;
54261;SDS011;40174;52.364;6.452;2022-10-03T02:13:04;3.80;;;1.17;;
54261;SDS011;40174;52.364;6.452;2022-10-03T02:15:45;6.63;;;1.38;;
54261;SDS011;40174;52.364;6.452;2022-10-03T02:18:23;9.20;;;1.38;;
54261;SDS011;40174;52.364;6.452;2022-10-03T02:20:57;14.50;;;1.63;;
54261;SDS011;40174;52.364;6.452;2022-10-03T02:23:37;3.80;;;1.20;;
54261;SDS011;40174;52.364;6.452;2022-10-03T02:29:32;8.57;;;1.40;;
54261;SDS011;40174;52.364;6.452;2022-10-03T02:35:24;6.82;;;1.60;;
54261;SDS011;40174;52.364;6.452;2022-10-03T02:38:08;4.90;;;1.13;;
54261;SDS011;40174;52.364;6.452;2022-10-03T02:40:55;11.75;;;1.23;;
54261;SDS011;40174;52.364;6.452;2022-10-03T02:43:46;5.88;;;1.35;;
54261;SDS011;40174;52.364;6.452;2022-10-03T02:52:57;9.13;;;1.50;;
54261;SDS011;40174;52.364;6.452;2022-10-03T03:01:58;7.72;;;1.52;;
54261;SDS011;40174;52.364;6.452;2022-10-03T03:05:03;4.82;;;1.30;;
54261;SDS011;40174;52.364;6.452;2022-10-03T03:07:50;7.80;;;1.50;;
54261;SDS011;40174;52.364;6.452;2022-10-03T03:10:43;4.72;;;1.42;;
54261;SDS011;40174;52.364;6.452;2022-10-03T03:13:29;12.98;;;1.48;;
54261;SDS011;40174;52.364;6.452;2022-10-03T03:19:15;6.00;;;1.50;;
54261;SDS011;40174;52.364;6.452;2022-10-03T03:21:57;4.23;;;1.50;;
54261;SDS011;40174;52.364;6.452;2022-10-03T03:24:40;9.30;;;1.23;;
54261;SDS011;40174;52.364;6.452;2022-10-03T03:27:26;7.03;;;1.35;;
54261;SDS011;40174;52.364;6.452;2022-10-03T03:30:11;5.45;;;1.50;;
54261;SDS011;40174;52.364;6.452;2022-10-03T03:32:48;8.20;;;1.40;;
54261;SDS011;40174;52.364;6.452;2022-10-03T03:35:28;8.38;;;1.35;;
54261;SDS011;40174;52.364;6.452;2022-10-03T03:38:09;7.43;;;1.73;;
54261;SDS011;40174;52.364;6.452;2022-10-03T03:40:50;10.20;;;1.60;;
54261;SDS011;40174;52.364;6.452;2022-10-03T03:43:33;9.68;;;1.42;;
54261;SDS011;40174;52.364;6.452;2022-10-03T03:46:14;9.85;;;1.38;;
54261;SDS011;40174;52.364;6.452;2022-10-03T03:51:42;7.00;;;1.05;;
54261;SDS011;40174;52.364;6.452;2022-10-03T04:00:12;4.35;;;1.08;;
54261;SDS011;40174;52.364;6.452;2022-10-03T04:02:44;8.52;;;1.60;;
54261;SDS011;40174;52.364;6.452;2022-10-03T04:05:25;5.35;;;1.80;;
54261;SDS011;40174;52.364;6.452;2022-10-03T04:08:09;4.53;;;1.60;;
54261;SDS011;40174;52.364;6.452;2022-10-03T04:10:49;9.75;;;1.60;;
54261;SDS011;40174;52.364;6.452;2022-10-03T04:13:34;10.65;;;1.58;;
54261;SDS011;40174;52.364;6.452;2022-10-03T04:16:16;3.47;;;1.00;;
54261;SDS011;40174;52.364;6.452;2022-10-03T04:19:08;5.35;;;1.05;;
54261;SDS011;40174;52.364;6.452;2022-10-03T04:21:43;9.55;;;1.40;;
54261;SDS011;40174;52.364;6.452;2022-10-03T04:24:35;7.05;;;1.70;;
54261;SDS011;40174;52.364;6.452;2022-10-03T04:30:15;4.43;;;1.42;;
54261;SDS011;40174;52.364;6.452;2022-10-03T04:32:57;8.48;;;1.42;;
54261;SDS011;40174;52.364;6.452;2022-10-03T04:35:42;6.22;;;1.42;;
54261;SDS011;40174;52.364;6.452;2022-10-03T04:38:20;8.18;;;1.48;;
54261;SDS011;40174;52.364;6.452;2022-10-03T04:41:04;9.60;;;1.63;;
54261;SDS011;40174;52.364;6.452;2022-10-03T04:43:39;4.85;;;1.55;;
54261;SDS011;40174;52.364;6.452;2022-10-03T04:46:15;9.07;;;1.50;;
54261;SDS011;40174;52.364;6.452;2022-10-03T04:48:52;9.35;;;1.77;;
54261;SDS011;40174;52.364;6.452;2022-10-03T04:51:28;5.78;;;1.45;;
54261;SDS011;40174;52.364;6.452;2022-10-03T04:54:12;10.32;;;1.60;;
54261;SDS011;40174;52.364;6.452;2022-10-03T04:56:48;13.68;;;2.00;;
54261;SDS011;40174;52.364;6.452;2022-10-03T04:59:28;11.63;;;1.87;;
54261;SDS011;40174;52.364;6.452;2022-10-03T05:02:20;8.63;;;1.90;;
54261;SDS011;40174;52.364;6.452;2022-10-03T05:04:57;5.65;;;1.20;;
54261;SDS011;40174;52.364;6.452;2022-10-03T05:07:36;8.57;;;1.58;;
54261;SDS011;40174;52.364;6.452;2022-10-03T05:13:10;8.68;;;1.60;;
54261;SDS011;40174;52.364;6.452;2022-10-03T05:15:43;8.68;;;1.50;;
54261;SDS011;40174;52.364;6.452;2022-10-03T05:18:19;8.75;;;1.42;;
54261;SDS011;40174;52.364;6.452;2022-10-03T05:20:54;7.03;;;1.23;;
54261;SDS011;40174;52.364;6.452;2022-10-03T05:23:33;5.40;;;1.42;;
54261;SDS011;40174;52.364;6.452;2022-10-03T05:26:11;8.18;;;1.77;;
54261;SDS011;40174;52.364;6.452;2022-10-03T05:28:48;6.13;;;1.85;;
54261;SDS011;40174;52.364;6.452;2022-10-03T05:31:22;5.35;;;1.42;;
54261;SDS011;40174;52.364;6.452;2022-10-03T05:33:59;5.90;;;1.60;;
54261;SDS011;40174;52.364;6.452;2022-10-03T05:36:33;6.80;;;1.77;;
54261;SDS011;40174;52.364;6.452;2022-10-03T05:39:26;8.82;;;1.38;;
54261;SDS011;40174;52.364;6.452;2022-10-03T05:42:04;9.18;;;1.67;;
54261;SDS011;40174;52.364;6.452;2022-10-03T05:44:40;7.53;;;1.48;;
54261;SDS011;40174;52.364;6.452;2022-10-03T05:47:10;6.63;;;1.45;;
54261;SDS011;40174;52.364;6.452;2022-10-03T05:50:08;7.20;;;1.15;;
54261;SDS011;40174;52.364;6.452;2022-10-03T05:53:01;6.15;;;1.23;;
54261;SDS011;40174;52.364;6.452;2022-10-03T05:55:45;7.30;;;1.65;;
54261;SDS011;40174;52.364;6.452;2022-10-03T05:58:29;6.55;;;1.33;;
54261;SDS011;40174;52.364;6.452;2022-10-03T06:01:04;8.68;;;1.48;;
54261;SDS011;40174;52.364;6.452;2022-10-03T06:03:59;14.88;;;2.40;;
54261;SDS011;40174;52.364;6.452;2022-10-03T06:06:45;3.50;;;1.15;;
54261;SDS011;40174;52.364;6.452;2022-10-03T06:12:12;7.00;;;1.38;;
54261;SDS011;40174;52.364;6.452;2022-10-03T06:14:56;10.90;;;1.52;;
54261;SDS011;40174;52.364;6.452;2022-10-03T06:20:31;6.22;;;1.35;;
54261;SDS011;40174;52.364;6.452;2022-10-03T06:23:58;12.35;;;1.98;;
54261;SDS011;40174;52.364;6.452;2022-10-03T06:26:54;9.57;;;1.67;;
54261;SDS011;40174;52.364;6.452;2022-10-03T06:29:46;9.18;;;1.60;;
54261;SDS011;40174;52.364;6.452;2022-10-03T06:32:30;8.27;;;1.67;;
54261;SDS011;40174;52.364;6.452;2022-10-03T06:42:04;10.20;;;1.90;;
54261;SDS011;40174;52.364;6.452;2022-10-03T06:44:47;6.35;;;1.40;;
54261;SDS011;40174;52.364;6.452;2022-10-03T06:47:34;4.63;;;1.58;;
54261;SDS011;40174;52.364;6.452;2022-10-03T06:50:18;7.93;;;1.58;;
54261;SDS011;40174;52.364;6.452;2022-10-03T06:53:08;6.35;;;1.70;;
54261;SDS011;40174;52.364;6.452;2022-10-03T06:55:57;3.58;;;1.23;;
54261;SDS011;40174;52.364;6.452;2022-10-03T07:02:20;8.43;;;1.55;;
54261;SDS011;40174;52.364;6.452;2022-10-03T07:05:12;8.10;;;1.35;;
54261;SDS011;40174;52.364;6.452;2022-10-03T07:08:18;8.60;;;1.63;;
54261;SDS011;40174;52.364;6.452;2022-10-03T07:11:10;2.70;;;0.98;;
54261;SDS011;40174;52.364;6.452;2022-10-03T07:14:00;9.40;;;1.40;;
54261;SDS011;40174;52.364;6.452;2022-10-03T07:16:54;8.10;;;1.63;;
54261;SDS011;40174;52.364;6.452;2022-10-03T07:19:39;11.05;;;1.73;;
54261;SDS011;40174;52.364;6.452;2022-10-03T07:31:53;4.93;;;1.33;;
54261;SDS011;40174;52.364;6.452;2022-10-03T07:34:44;5.85;;;1.70;;
54261;SDS011;40174;52.364;6.452;2022-10-03T07:37:27;10.30;;;1.77;;
54261;SDS011;40174;52.364;6.452;2022-10-03T07:40:37;7.40;;;1.60;;
54261;SDS011;40174;52.364;6.452;2022-10-03T07:43:45;9.48;;;1.58;;
54261;SDS011;40174;52.364;6.452;2022-10-03T07:49:36;10.30;;;1.73;;
54261;SDS011;40174;52.364;6.452;2022-10-03T07:55:22;10.55;;;1.40;;
54261;SDS011;40174;52.364;6.452;2022-10-03T08:01:12;14.73;;;2.00;;
54261;SDS011;40174;52.364;6.452;2022-10-03T08:03:56;10.23;;;1.48;;
54261;SDS011;40174;52.364;6.452;2022-10-03T08:06:39;8.25;;;1.35;;
54261;SDS011;40174;52.364;6.452;2022-10-03T08:15:21;8.88;;;2.13;;
54261;SDS011;40174;52.364;6.452;2022-10-03T08:21:02;7.10;;;1.40;;
54261;SDS011;40174;52.364;6.452;2022-10-03T08:26:48;6.10;;;1.13;;
54261;SDS011;40174;52.364;6.452;2022-10-03T08:29:34;13.70;;;1.70;;
54261;SDS011;40174;52.364;6.452;2022-10-03T08:32:33;4.95;;;1.08;;
54261;SDS011;40174;52.364;6.452;2022-10-03T08:38:08;9.63;;;1.88;;
54261;SDS011;40174;52.364;6.452;2022-10-03T08:41:02;7.70;;;1.42;;
54261;SDS011;40174;52.364;6.452;2022-10-03T08:44:16;8.13;;;1.10;;
54261;SDS011;40174;52.364;6.452;2022-10-03T08:47:05;4.45;;;1.30;;
54261;SDS011;40174;52.364;6.452;2022-10-03T08:49:57;7.28;;;1.63;;
54261;SDS011;40174;52.364;6.452;2022-10-03T08:52:56;5.47;;;1.50;;
54261;SDS011;40174;52.364;6.452;2022-10-03T08:55:53;7.60;;;1.45;;
54261;SDS011;40174;52.364;6.452;2022-10-03T09:01:29;12.18;;;1.63;;
54261;SDS011;40174;52.364;6.452;2022-10-03T09:07:06;4.60;;;0.95;;
54261;SDS011;40174;52.364;6.452;2022-10-03T09:09:55;5.07;;;1.10;;
54261;SDS011;40174;52.364;6.452;2022-10-03T09:13:05;4.47;;;1.15;;
54261;SDS011;40174;52.364;6.452;2022-10-03T09:15:56;9.00;;;1.10;;
54261;SDS011;40174;52.364;6.452;2022-10-03T09:18:50;5.88;;;1.15;;
54261;SDS011;40174;52.364;6.452;2022-10-03T09:21:33;7.60;;;1.63;;
54261;SDS011;40174;52.364;6.452;2022-10-03T09:24:42;7.72;;;1.25;;
54261;SDS011;40174;52.364;6.452;2022-10-03T09:27:39;11.07;;;1.13;;
54261;SDS011;40174;52.364;6.452;2022-10-03T09:30:16;4.35;;;0.75;;
54261;SDS011;40174;52.364;6.452;2022-10-03T09:36:03;7.85;;;0.98;;
54261;SDS011;40174;52.364;6.452;2022-10-03T09:38:52;1.98;;;0.60;;
54261;SDS011;40174;52.364;6.452;2022-10-03T09:41:54;4.97;;;0.90;;
54261;SDS011;40174;52.364;6.452;2022-10-03T09:44:45;4.78;;;1.17;;
54261;SDS011;40174;52.364;6.452;2022-10-03T09:50:34;3.83;;;0.63;;
54261;SDS011;40174;52.364;6.452;2022-10-03T09:53:25;7.18;;;0.82;;
54261;SDS011;40174;52.364;6.452;2022-10-03T09:56:15;6.50;;;0.70;;
54261;SDS011;40174;52.364;6.452;2022-10-03T09:59:06;11.43;;;0.95;;
54261;SDS011;40174;52.364;6.452;2022-10-03T10:01:46;5.80;;;0.70;;
54261;SDS011;40174;52.364;6.452;2022-10-03T10:04:38;5.07;;;0.68;;
54261;SDS011;40174;52.364;6.452;2022-10-03T10:10:17;5.65;;;0.65;;
54261;SDS011;40174;52.364;6.452;2022-10-03T10:13:14;5.78;;;0.88;;
54261;SDS011;40174;52.364;6.452;2022-10-03T10:16:08;4.25;;;0.70;;
54261;SDS011;40174;52.364;6.452;2022-10-03T10:19:02;4.60;;;0.70;;
54261;SDS011;40174;52.364;6.452;2022-10-03T10:21:55;9.70;;;0.98;;
54261;SDS011;40174;52.364;6.452;2022-10-03T10:24:47;5.38;;;0.88;;
54261;SDS011;40174;52.364;6.452;2022-10-03T10:30:44;5.43;;;0.73;;
54261;SDS011;40174;52.364;6.452;2022-10-03T10:33:41;6.43;;;0.68;;
54261;SDS011;40174;52.364;6.452;2022-10-03T10:40:20;7.45;;;0.85;;
54261;SDS011;40174;52.364;6.452;2022-10-03T10:43:19;3.92;;;0.63;;
54261;SDS011;40174;52.364;6.452;2022-10-03T10:46:16;4.90;;;0.70;;
54261;SDS011;40174;52.364;6.452;2022-10-03T10:49:17;3.67;;;0.85;;
54261;SDS011;40174;52.364;6.452;2022-10-03T10:52:14;4.28;;;0.63;;
54261;SDS011;40174;52.364;6.452;2022-10-03T10:58:51;5.97;;;0.82;;
54261;SDS011;40174;52.364;6.452;2022-10-03T11:02:05;6.10;;;0.63;;
54261;SDS011;40174;52.364;6.452;2022-10-03T11:08:09;4.90;;;0.73;;
54261;SDS011;40174;52.364;6.452;2022-10-03T11:11:11;4.78;;;0.70;;
54261;SDS011;40174;52.364;6.452;2022-10-03T11:17:21;2.47;;;0.82;;
54261;SDS011;40174;52.364;6.452;2022-10-03T11:20:26;4.03;;;0.50;;
54261;SDS011;40174;52.364;6.452;2022-10-03T11:23:27;8.25;;;1.00;;
54261;SDS011;40174;52.364;6.452;2022-10-03T11:26:30;2.17;;;0.40;;
54261;SDS011;40174;52.364;6.452;2022-10-03T11:29:29;5.93;;;0.73;;
54261;SDS011;40174;52.364;6.452;2022-10-03T11:35:33;3.63;;;0.68;;
54261;SDS011;40174;52.364;6.452;2022-10-03T11:38:22;3.78;;;0.55;;
54261;SDS011;40174;52.364;6.452;2022-10-03T11:40:55;3.30;;;0.52;;
54261;SDS011;40174;52.364;6.452;2022-10-03T11:43:40;4.88;;;0.90;;
54261;SDS011;40174;52.364;6.452;2022-10-03T11:46:21;1.83;;;0.38;;
54261;SDS011;40174;52.364;6.452;2022-10-03T11:49:03;4.63;;;0.80;;
54261;SDS011;40174;52.364;6.452;2022-10-03T11:51:41;4.88;;;0.60;;
54261;SDS011;40174;52.364;6.452;2022-10-03T11:54:19;5.97;;;0.70;;
54261;SDS011;40174;52.364;6.452;2022-10-03T11:56:53;7.88;;;0.65;;
54261;SDS011;40174;52.364;6.452;2022-10-03T11:59:32;1.38;;;0.40;;
54261;SDS011;40174;52.364;6.452;2022-10-03T12:02:09;5.53;;;0.63;;
54261;SDS011;40174;52.364;6.452;2022-10-03T12:04:53;3.42;;;0.45;;
54261;SDS011;40174;52.364;6.452;2022-10-03T12:07:35;4.40;;;0.63;;
54261;SDS011;40174;52.364;6.452;2022-10-03T12:10:35;8.05;;;0.90;;
54261;SDS011;40174;52.364;6.452;2022-10-03T12:13:12;2.83;;;0.40;;
54261;SDS011;40174;52.364;6.452;2022-10-03T12:15:43;4.05;;;0.40;;
54261;SDS011;40174;52.364;6.452;2022-10-03T12:18:13;6.65;;;0.75;;
54261;SDS011;40174;52.364;6.452;2022-10-03T12:23:47;8.07;;;1.77;;
54261;SDS011;40174;52.364;6.452;2022-10-03T12:28:53;1.88;;;0.50;;
54261;SDS011;40174;52.364;6.452;2022-10-03T12:31:24;3.03;;;0.40;;
54261;SDS011;40174;52.364;6.452;2022-10-03T12:33:55;4.22;;;0.52;;
54261;SDS011;40174;52.364;6.452;2022-10-03T12:36:35;3.58;;;0.60;;
54261;SDS011;40174;52.364;6.452;2022-10-03T12:39:17;4.47;;;0.68;;
54261;SDS011;40174;52.364;6.452;2022-10-03T12:41:56;12.15;;;1.00;;
54261;SDS011;40174;52.364;6.452;2022-10-03T12:44:40;6.35;;;0.80;;
54261;SDS011;40174;52.364;6.452;2022-10-03T12:50:13;4.13;;;0.47;;
54261;SDS011;40174;52.364;6.452;2022-10-03T12:52:54;4.40;;;0.52;;
54261;SDS011;40174;52.364;6.452;2022-10-03T12:55:46;4.78;;;0.57;;
54261;SDS011;40174;52.364;6.452;2022-10-03T12:58:28;7.60;;;0.70;;
54261;SDS011;40174;52.364;6.452;2022-10-03T13:03:35;3.00;;;0.60;;
54261;SDS011;40174;52.364;6.452;2022-10-03T13:09:10;3.88;;;0.45;;
54261;SDS011;40174;52.364;6.452;2022-10-03T13:11:51;4.32;;;0.68;;
54261;SDS011;40174;52.364;6.452;2022-10-03T13:14:40;8.35;;;0.73;;
54261;SDS011;40174;52.364;6.452;2022-10-03T13:17:27;2.72;;;0.35;;
54261;SDS011;40174;52.364;6.452;2022-10-03T13:20:03;4.43;;;0.57;;
54261;SDS011;40174;52.364;6.452;2022-10-03T13:22:37;3.92;;;0.60;;
54261;SDS011;40174;52.364;6.452;2022-10-03T13:25:12;2.58;;;0.50;;
54261;SDS011;40174;52.364;6.452;2022-10-03T13:27:48;4.95;;;0.43;;
54261;SDS011;40174;52.364;6.452;2022-10-03T13:30:23;3.55;;;0.50;;
54261;SDS011;40174;52.364;6.452;2022-10-03T13:32:55;4.05;;;0.70;;
54261;SDS011;40174;52.364;6.452;2022-10-03T13:35:28;2.35;;;0.30;;
54261;SDS011;40174;52.364;6.452;2022-10-03T13:38:28;3.45;;;0.70;;
54261;SDS011;40174;52.364;6.452;2022-10-03T13:41:21;2.83;;;0.60;;
54261;SDS011;40174;52.364;6.452;2022-10-03T13:43:56;2.53;;;0.52;;
54261;SDS011;40174;52.364;6.452;2022-10-03T13:46:28;2.00;;;0.47;;
54261;SDS011;40174;52.364;6.452;2022-10-03T13:49:04;3.85;;;0.65;;
54261;SDS011;40174;52.364;6.452;2022-10-03T13:51:44;3.50;;;0.60;;
54261;SDS011;40174;52.364;6.452;2022-10-03T13:54:19;4.28;;;0.60;;
54261;SDS011;40174;52.364;6.452;2022-10-03T13:57:06;5.10;;;0.63;;
54261;SDS011;40174;52.364;6.452;2022-10-03T13:59:51;3.60;;;0.60;;
54261;SDS011;40174;52.364;6.452;2022-10-03T14:02:36;3.03;;;0.60;;
54261;SDS011;40174;52.364;6.452;2022-10-03T14:08:08;4.07;;;0.82;;
54261;SDS011;40174;52.364;6.452;2022-10-03T14:10:52;4.78;;;0.80;;
54261;SDS011;40174;52.364;6.452;2022-10-03T14:13:35;6.60;;;0.90;;
54261;SDS011;40174;52.364;6.452;2022-10-03T14:16:19;3.35;;;0.40;;
54261;SDS011;40174;52.364;6.452;2022-10-03T14:18:54;4.78;;;0.65;;
54261;SDS011;40174;52.364;6.452;2022-10-03T14:21:38;4.72;;;0.75;;
54261;SDS011;40174;52.364;6.452;2022-10-03T14:24:19;8.43;;;0.95;;
54261;SDS011;40174;52.364;6.452;2022-10-03T14:26:56;2.25;;;0.47;;
54261;SDS011;40174;52.364;6.452;2022-10-03T14:29:32;3.40;;;0.70;;
54261;SDS011;40174;52.364;6.452;2022-10-03T14:32:12;5.22;;;0.98;;
54261;SDS011;40174;52.364;6.452;2022-10-03T14:34:47;2.78;;;0.40;;
54261;SDS011;40174;52.364;6.452;2022-10-03T14:37:23;7.60;;;1.17;;
54261;SDS011;40174;52.364;6.452;2022-10-03T14:40:07;3.28;;;0.50;;
54261;SDS011;40174;52.364;6.452;2022-10-03T14:45:36;4.50;;;0.70;;
54261;SDS011;40174;52.364;6.452;2022-10-03T14:48:12;5.15;;;0.80;;
54261;SDS011;40174;52.364;6.452;2022-10-03T14:50:43;4.65;;;0.70;;
54261;SDS011;40174;52.364;6.452;2022-10-03T14:53:15;3.70;;;0.45;;
54261;SDS011;40174;52.364;6.452;2022-10-03T14:55:50;4.20;;;0.50;;
54261;SDS011;40174;52.364;6.452;2022-10-03T14:58:24;3.50;;;0.93;;
54261;SDS011;40174;52.364;6.452;2022-10-03T15:01:00;3.88;;;0.52;;
54261;SDS011;40174;52.364;6.452;2022-10-03T15:03:33;4.75;;;0.70;;
54261;SDS011;40174;52.364;6.452;2022-10-03T15:06:17;8.23;;;1.13;;
54261;SDS011;40174;52.364;6.452;2022-10-03T15:08:58;6.75;;;0.70;;
54261;SDS011;40174;52.364;6.452;2022-10-03T15:11:27;3.80;;;0.75;;
54261;SDS011;40174;52.364;6.452;2022-10-03T15:13:58;5.57;;;0.52;;
54261;SDS011;40174;52.364;6.452;2022-10-03T15:16:31;3.75;;;0.80;;
54261;SDS011;40174;52.364;6.452;2022-10-03T15:19:04;6.57;;;0.77;;
54261;SDS011;40174;52.364;6.452;2022-10-03T15:21:35;5.63;;;1.08;;
54261;SDS011;40174;52.364;6.452;2022-10-03T15:24:07;3.42;;;0.90;;
54261;SDS011;40174;52.364;6.452;2022-10-03T15:26:36;6.20;;;0.85;;
54261;SDS011;40174;52.364;6.452;2022-10-03T15:29:05;3.03;;;0.60;;
54261;SDS011;40174;52.364;6.452;2022-10-03T15:31:38;4.90;;;0.60;;
54261;SDS011;40174;52.364;6.452;2022-10-03T15:34:13;3.95;;;0.55;;
54261;SDS011;40174;52.364;6.452;2022-10-03T15:36:42;6.97;;;0.70;;
54261;SDS011;40174;52.364;6.452;2022-10-03T15:39:16;4.50;;;0.98;;
54261;SDS011;40174;52.364;6.452;2022-10-03T15:41:49;9.23;;;1.00;;
54261;SDS011;40174;52.364;6.452;2022-10-03T15:44:24;2.67;;;0.77;;
54261;SDS011;40174;52.364;6.452;2022-10-03T15:46:57;3.47;;;1.08;;
54261;SDS011;40174;52.364;6.452;2022-10-03T15:49:31;1.88;;;0.70;;
54261;SDS011;40174;52.364;6.452;2022-10-03T15:52:09;4.63;;;0.68;;
54261;SDS011;40174;52.364;6.452;2022-10-03T15:54:43;3.00;;;0.65;;
54261;SDS011;40174;52.364;6.452;2022-10-03T15:57:15;3.90;;;0.88;;
54261;SDS011;40174;52.364;6.452;2022-10-03T15:59:44;5.45;;;1.13;;
54261;SDS011;40174;52.364;6.452;2022-10-03T16:02:17;4.78;;;0.70;;
54261;SDS011;40174;52.364;6.452;2022-10-03T16:04:48;2.28;;;0.70;;
54261;SDS011;40174;52.364;6.452;2022-10-03T16:07:22;2.72;;;0.65;;
54261;SDS011;40174;52.364;6.452;2022-10-03T16:10:00;5.00;;;0.80;;
54261;SDS011;40174;52.364;6.452;2022-10-03T16:12:40;3.65;;;0.90;;
54261;SDS011;40174;52.364;6.452;2022-10-03T16:15:18;4.18;;;0.77;;
54261;SDS011;40174;52.364;6.452;2022-10-03T16:17:51;3.08;;;0.80;;
54261;SDS011;40174;52.364;6.452;2022-10-03T16:20:23;3.67;;;0.60;;
54261;SDS011;40174;52.364;6.452;2022-10-03T16:22:55;3.55;;;0.57;;
54261;SDS011;40174;52.364;6.452;2022-10-03T16:25:24;6.00;;;0.70;;
54261;SDS011;40174;52.364;6.452;2022-10-03T16:27:55;6.78;;;1.30;;
54261;SDS011;40174;52.364;6.452;2022-10-03T16:30:26;6.72;;;1.52;;
54261;SDS011;40174;52.364;6.452;2022-10-03T16:32:59;7.15;;;2.25;;
54261;SDS011;40174;52.364;6.452;2022-10-03T16:35:32;12.63;;;2.70;;
54261;SDS011;40174;52.364;6.452;2022-10-03T16:38:02;5.63;;;2.20;;
54261;SDS011;40174;52.364;6.452;2022-10-03T16:40:33;6.00;;;2.03;;
54261;SDS011;40174;52.364;6.452;2022-10-03T16:43:02;6.15;;;1.60;;
54261;SDS011;40174;52.364;6.452;2022-10-03T16:45:34;4.22;;;1.60;;
54261;SDS011;40174;52.364;6.452;2022-10-03T16:48:09;3.60;;;1.00;;
54261;SDS011;40174;52.364;6.452;2022-10-03T16:50:57;3.60;;;0.88;;
54261;SDS011;40174;52.364;6.452;2022-10-03T16:53:25;3.30;;;0.90;;
54261;SDS011;40174;52.364;6.452;2022-10-03T16:55:54;7.88;;;1.00;;
54261;SDS011;40174;52.364;6.452;2022-10-03T16:58:26;4.65;;;1.40;;
54261;SDS011;40174;52.364;6.452;2022-10-03T17:00:56;6.30;;;0.80;;
54261;SDS011;40174;52.364;6.452;2022-10-03T17:03:27;5.57;;;1.30;;
54261;SDS011;40174;52.364;6.452;2022-10-03T17:06:01;4.32;;;1.08;;
54261;SDS011;40174;52.364;6.452;2022-10-03T17:08:33;3.75;;;1.10;;
54261;SDS011;40174;52.364;6.452;2022-10-03T17:11:06;3.67;;;0.90;;
54261;SDS011;40174;52.364;6.452;2022-10-03T17:13:38;6.82;;;0.88;;
54261;SDS011;40174;52.364;6.452;2022-10-03T17:16:10;2.40;;;0.90;;
54261;SDS011;40174;52.364;6.452;2022-10-03T17:18:41;2.47;;;0.77;;
54261;SDS011;40174;52.364;6.452;2022-10-03T17:21:19;3.45;;;1.10;;
54261;SDS011;40174;52.364;6.452;2022-10-03T17:23:52;2.90;;;1.00;;
54261;SDS011;40174;52.364;6.452;2022-10-03T17:26:28;5.28;;;1.52;;
54261;SDS011;40174;52.364;6.452;2022-10-03T17:29:02;6.30;;;1.35;;
54261;SDS011;40174;52.364;6.452;2022-10-03T17:31:37;5.22;;;1.40;;
54261;SDS011;40174;52.364;6.452;2022-10-03T17:34:10;2.97;;;1.00;;
54261;SDS011;40174;52.364;6.452;2022-10-03T17:36:57;4.10;;;0.70;;
54261;SDS011;40174;52.364;6.452;2022-10-03T17:39:53;7.68;;;0.93;;
54261;SDS011;40174;52.364;6.452;2022-10-03T17:42:26;6.20;;;1.08;;
54261;SDS011;40174;52.364;6.452;2022-10-03T17:45:04;9.32;;;1.17;;
54261;SDS011;40174;52.364;6.452;2022-10-03T17:47:44;7.75;;;1.77;;
54261;SDS011;40174;52.364;6.452;2022-10-03T17:50:19;6.40;;;1.17;;
54261;SDS011;40174;52.364;6.452;2022-10-03T17:52:52;5.80;;;1.30;;
54261;SDS011;40174;52.364;6.452;2022-10-03T17:55:20;7.18;;;2.45;;
54261;SDS011;40174;52.364;6.452;2022-10-03T17:57:52;7.28;;;4.20;;
54261;SDS011;40174;52.364;6.452;2022-10-03T18:00:21;10.15;;;5.28;;
54261;SDS011;40174;52.364;6.452;2022-10-03T18:02:51;7.30;;;3.90;;
54261;SDS011;40174;52.364;6.452;2022-10-03T18:05:23;7.57;;;3.47;;
54261;SDS011;40174;52.364;6.452;2022-10-03T18:07:54;6.40;;;2.63;;
54261;SDS011;40174;52.364;6.452;2022-10-03T18:10:23;2.35;;;1.20;;
54261;SDS011;40174;52.364;6.452;2022-10-03T18:12:54;5.35;;;1.30;;
54261;SDS011;40174;52.364;6.452;2022-10-03T18:21:35;6.35;;;1.52;;
54261;SDS011;40174;52.364;6.452;2022-10-03T18:24:20;4.55;;;1.38;;
54261;SDS011;40174;52.364;6.452;2022-10-03T18:26:56;7.43;;;1.23;;
54261;SDS011;40174;52.364;6.452;2022-10-03T18:29:36;4.22;;;1.65;;
54261;SDS011;40174;52.364;6.452;2022-10-03T18:32:10;5.30;;;1.13;;
54261;SDS011;40174;52.364;6.452;2022-10-03T18:34:41;8.55;;;1.10;;
54261;SDS011;40174;52.364;6.452;2022-10-03T18:37:16;4.70;;;1.45;;
54261;SDS011;40174;52.364;6.452;2022-10-03T18:42:27;7.60;;;1.23;;
54261;SDS011;40174;52.364;6.452;2022-10-03T18:44:58;6.65;;;1.10;;
54261;SDS011;40174;52.364;6.452;2022-10-03T18:47:25;5.65;;;1.30;;
54261;SDS011;40174;52.364;6.452;2022-10-03T18:50:01;4.55;;;1.27;;
54261;SDS011;40174;52.364;6.452;2022-10-03T18:52:38;5.50;;;1.27;;
54261;SDS011;40174;52.364;6.452;2022-10-03T18:55:15;4.68;;;1.20;;